Time;durP1;ratioP1;P1;durP2;ratioP2;P2;SDS_P1;SDS_P2;PMS_P1;PMS_P2;Temp;Humidity;BMP_temperature;BMP_pressure;BME280_temperature;BME280_humidity;BME280_pressure;Samples;Min_cycle;Max_cycle;Signal;HPM_P1;HPM_P2
2022/07/12 00:00:18;;;;;;;0.52;0.50;;;20.60;63.80;;;;;;20581669;28;20130;-71
2022/07/12 00:10:19;;;;;;;0.85;0.50;;;20.50;63.70;;;;;;20600468;28;20105;-70
2022/07/12 00:20:19;;;;;;;1.10;0.40;;;20.50;63.70;;;;;;20602440;28;20413;-73
2022/07/12 00:30:20;;;;;;;2.35;1.05;;;20.40;63.70;;;;;;20586860;28;20536;-72
2022/07/12 00:40:21;;;;;;;2.40;0.90;;;20.40;63.70;;;;;;20583914;28;20050;-72
2022/07/12 00:50:22;;;;;;;1.67;0.55;;;20.40;63.60;;;;;;20935243;23;20051;-72
2022/07/12 01:00:24;;;;;;;0.57;0.52;;;20.30;63.30;;;;;;20595639;28;20038;-73
2022/07/12 01:10:25;;;;;;;0.45;0.32;;;20.30;62.90;;;;;;20543423;28;20097;-74
2022/07/12 01:20:25;;;;;;;0.75;0.50;;;20.20;62.50;;;;;;20516854;28;20386;-72
2022/07/12 01:30:26;;;;;;;0.93;0.50;;;20.20;62.50;;;;;;20582887;28;20035;-71
2022/07/12 01:40:27;;;;;;;0.95;0.65;;;20.20;62.70;;;;;;20548043;28;20035;-72
2022/07/12 01:50:27;;;;;;;1.33;0.93;;;20.10;62.90;;;;;;20519286;28;20444;-72
2022/07/12 02:00:28;;;;;;;0.93;0.70;;;20.10;63.00;;;;;;20560451;28;20532;-72
2022/07/12 02:10:29;;;;;;;1.70;0.38;;;20.10;63.10;;;;;;20529932;28;20138;-71
2022/07/12 02:20:29;;;;;;;1.23;0.70;;;20.00;63.20;;;;;;20584361;28;20470;-71
2022/07/12 02:30:30;;;;;;;1.15;0.85;;;20.00;63.30;;;;;;20561388;28;20046;-72
2022/07/12 02:50:49;;;;;;;1.50;0.75;;;19.90;63.40;;;;;;20550111;28;20035;-71
2022/07/12 03:00:50;;;;;;;1.70;1.20;;;19.90;63.60;;;;;;20578061;28;20389;-72
2022/07/12 03:10:50;;;;;;;2.00;1.13;;;19.90;63.70;;;;;;20517321;28;20341;-72
2022/07/12 03:20:51;;;;;;;1.27;0.90;;;19.90;63.90;;;;;;20562957;28;20039;-72
2022/07/12 03:30:52;;;;;;;2.10;0.90;;;19.90;64.00;;;;;;20589624;28;20046;-72
2022/07/12 03:40:52;;;;;;;0.90;0.80;;;19.90;64.10;;;;;;20538457;28;20469;-71
2022/07/12 03:50:53;;;;;;;0.57;0.52;;;19.80;64.20;;;;;;20550956;28;20393;-71
2022/07/12 04:00:54;;;;;;;0.55;0.50;;;19.80;64.40;;;;;;20613848;28;20477;-71
2022/07/12 04:10:55;;;;;;;0.77;0.70;;;19.90;64.40;;;;;;20532828;28;20070;-71
2022/07/12 04:20:55;;;;;;;1.50;0.70;;;19.80;64.40;;;;;;20521308;28;20664;-71
2022/07/12 04:30:56;;;;;;;2.08;0.80;;;19.80;64.40;;;;;;20538989;28;20043;-72
2022/07/12 04:40:56;;;;;;;1.03;0.90;;;19.80;64.50;;;;;;20544977;28;20069;-74
2022/07/12 04:50:57;;;;;;;1.48;1.17;;;19.80;64.60;;;;;;20562544;28;20385;-70
2022/07/12 05:00:58;;;;;;;2.50;1.13;;;19.80;64.50;;;;;;20573694;28;20047;-69
2022/07/12 05:10:59;;;;;;;1.67;0.90;;;19.90;64.70;;;;;;20542226;28;20350;-73
2022/07/12 05:20:59;;;;;;;1.80;1.40;;;19.80;64.90;;;;;;20558061;28;20404;-68
2022/07/12 05:31:00;;;;;;;1.08;0.90;;;19.80;65.00;;;;;;20532120;28;20062;-70
2022/07/12 05:41:00;;;;;;;1.23;0.73;;;19.80;65.00;;;;;;20548249;28;20174;-72
2022/07/12 06:01:20;;;;;;;1.13;0.90;;;19.90;64.90;;;;;;20567106;28;20121;-71
2022/07/12 06:11:20;;;;;;;1.80;0.95;;;19.90;65.00;;;;;;20528379;28;20117;-70
2022/07/12 06:21:21;;;;;;;1.42;1.15;;;19.90;65.10;;;;;;20526891;28;20027;-70
2022/07/12 06:31:23;;;;;;;2.30;1.25;;;19.80;65.60;;;;;;20577212;28;20046;-73
2022/07/12 06:41:25;;;;;;;0.70;0.70;;;19.80;66.00;;;;;;20560350;28;20070;-73
2022/07/12 06:51:26;;;;;;;6.38;1.23;;;19.80;66.10;;;;;;20558656;28;20038;-72
2022/07/12 07:01:27;;;;;;;0.93;0.73;;;19.80;66.00;;;;;;20566599;28;20031;-71
2022/07/12 07:11:27;;;;;;;1.27;0.88;;;19.90;65.90;;;;;;20552069;28;20465;-72
2022/07/12 07:21:29;;;;;;;3.05;0.90;;;19.90;65.90;;;;;;20540410;28;20041;-72
2022/07/12 07:31:30;;;;;;;1.27;0.77;;;19.90;65.80;;;;;;20529088;28;20039;-72
2022/07/12 07:41:31;;;;;;;2.95;0.65;;;19.90;65.70;;;;;;20533066;28;20039;-70
2022/07/12 07:51:31;;;;;;;0.85;0.63;;;20.00;65.60;;;;;;20547686;28;20204;-71
2022/07/12 08:11:51;;;;;;;1.50;0.75;;;20.00;65.40;;;;;;20537666;28;20043;-70
2022/07/12 08:21:52;;;;;;;1.35;0.73;;;20.00;65.30;;;;;;20535709;28;20464;-70
2022/07/12 08:31:52;;;;;;;1.13;0.63;;;20.10;65.40;;;;;;20544554;28;20035;-71
2022/07/12 08:41:53;;;;;;;2.10;0.70;;;20.10;65.30;;;;;;20534953;28;20054;-71
2022/07/12 08:51:53;;;;;;;0.93;0.60;;;20.20;65.20;;;;;;20567825;28;20046;-74
2022/07/12 09:01:54;;;;;;;2.00;0.85;;;20.30;65.20;;;;;;20534026;28;20137;-72
2022/07/12 09:11:55;;;;;;;0.65;0.52;;;20.30;65.10;;;;;;20533427;28;20047;-71
2022/07/12 09:21:57;;;;;;;0.77;0.60;;;20.40;65.00;;;;;;20558776;28;20109;-71
2022/07/12 09:42:16;;;;;;;0.80;0.70;;;20.40;64.80;;;;;;20548549;28;20291;-70
2022/07/12 09:52:25;;;;;;;1.95;0.60;;;20.40;64.70;;;;;;20556422;28;20045;-72
2022/07/12 10:02:26;;;;;;;1.25;0.70;;;20.40;64.60;;;;;;20560826;28;20145;-71
2022/07/12 10:12:27;;;;;;;2.20;0.70;;;20.50;64.50;;;;;;20532998;28;20118;-70
2022/07/12 10:22:27;;;;;;;0.70;0.60;;;20.50;64.50;;;;;;20527511;28;20047;-71
2022/07/12 10:32:35;;;;;;;0.70;0.57;;;20.50;64.70;;;;;;20571769;28;20073;-73
2022/07/12 10:42:36;;;;;;;3.75;0.95;;;20.60;65.00;;;;;;20538950;28;20560;-74
2022/07/12 10:52:37;;;;;;;0.38;0.38;;;20.60;65.10;;;;;;20571896;28;20046;-73
2022/07/12 11:02:37;;;;;;;2.65;0.95;;;20.60;65.20;;;;;;20555793;28;20046;-73
2022/07/12 11:12:38;;;;;;;0.80;0.50;;;20.60;65.00;;;;;;20545150;28;20062;-74
2022/07/12 11:22:42;;;;;;;0.98;0.60;;;20.70;64.90;;;;;;20547896;28;20413;-70
2022/07/12 11:32:47;;;;;;;2.95;0.88;;;20.70;64.70;;;;;;20517964;28;20062;-71
2022/07/12 11:42:53;;;;;;;1.30;0.93;;;20.80;63.90;;;;;;20534259;28;20122;-70
2022/07/12 11:52:53;;;;;;;;;;;20.80;63.10;;;;;;20544409;28;20046;-73
2022/07/12 12:02:54;;;;;;;1.75;1.10;;;20.80;62.60;;;;;;20534736;28;19926;-68
2022/07/12 12:12:56;;;;;;;1.80;1.30;;;20.90;62.50;;;;;;20548373;28;20042;-69
2022/07/12 12:23:26;;;;;;;2.53;1.00;;;20.90;62.60;;;;;;20543621;28;20042;-68
2022/07/12 12:33:36;;;;;;;4.50;1.13;;;20.90;62.60;;;;;;20549394;28;20053;-67
2022/07/12 12:43:37;;;;;;;2.35;0.80;;;20.90;62.30;;;;;;20544593;28;20126;-69
2022/07/12 12:53:39;;;;;;;2.83;1.20;;;21.00;61.50;;;;;;20555786;28;20169;-72
2022/07/12 13:03:39;;;;;;;1.50;0.98;;;21.00;61.30;;;;;;20560589;28;20075;-71
2022/07/12 13:13:40;;;;;;;1.38;0.90;;;21.10;61.40;;;;;;20561963;28;20503;-72
2022/07/12 13:23:42;;;;;;;1.23;0.73;;;21.10;61.10;;;;;;20545131;28;20429;-73
2022/07/12 13:33:42;;;;;;;3.63;0.70;;;21.20;60.20;;;;;;20537256;28;20036;-75
2022/07/12 13:43:43;;;;;;;4.45;1.15;;;21.30;59.80;;;;;;20528190;28;20129;-74
2022/07/12 13:53:43;;;;;;;1.50;0.90;;;21.40;59.70;;;;;;20569021;28;20043;-76
2022/07/12 14:03:44;;;;;;;6.82;1.35;;;21.50;59.80;;;;;;20576978;28;20118;-76
2022/07/12 14:13:44;;;;;;;3.75;0.90;;;21.60;59.80;;;;;;20544783;28;20035;-76
2022/07/12 14:23:45;;;;;;;0.95;0.60;;;21.70;59.80;;;;;;20585409;28;20057;-76
2022/07/12 14:33:46;;;;;;;1.55;0.55;;;21.70;59.40;;;;;;20543399;28;20125;-78
2022/07/12 14:43:49;;;;;;;1.35;0.57;;;21.80;59.20;;;;;;20554513;28;20039;-77
2022/07/12 14:53:52;;;;;;;1.48;0.70;;;21.90;59.00;;;;;;20548432;28;20412;-78
2022/07/12 15:03:52;;;;;;;0.95;0.60;;;22.00;58.90;;;;;;20524907;28;20039;-76
2022/07/12 15:13:53;;;;;;;3.67;0.80;;;22.10;58.60;;;;;;20549363;28;20053;-74
2022/07/12 15:23:54;;;;;;;1.23;0.73;;;22.20;58.40;;;;;;20510009;28;20070;-72
2022/07/12 15:33:54;;;;;;;2.17;0.57;;;22.30;58.10;;;;;;20521917;28;20027;-75
2022/07/12 15:43:55;;;;;;;3.88;0.90;;;22.40;58.00;;;;;;20536226;28;20038;-74
2022/07/12 15:53:56;;;;;;;2.87;0.73;;;22.40;57.80;;;;;;20559708;28;20058;-70
2022/07/12 16:03:56;;;;;;;0.50;0.50;;;22.50;57.60;;;;;;20509509;28;20385;-70
2022/07/12 16:13:57;;;;;;;0.52;0.50;;;22.60;57.30;;;;;;20517282;28;20282;-70
2022/07/12 16:23:57;;;;;;;3.73;1.40;;;22.70;57.20;;;;;;20539584;28;20050;-70
2022/07/12 16:33:58;;;;;;;1.20;0.80;;;22.80;57.20;;;;;;20535931;28;20288;-74
2022/07/12 16:43:58;;;;;;;3.47;1.33;;;22.80;57.20;;;;;;20535878;28;20039;-72
2022/07/12 16:53:59;;;;;;;2.53;1.60;;;22.90;57.20;;;;;;20575621;28;20437;-73
2022/07/12 17:04:00;;;;;;;4.40;1.55;;;23.00;57.10;;;;;;20546656;28;20042;-74
2022/07/12 17:14:01;;;;;;;2.57;1.70;;;23.00;56.80;;;;;;20537326;28;20034;-73
2022/07/12 17:24:02;;;;;;;5.25;1.67;;;23.10;56.70;;;;;;20515080;28;20129;-74
2022/07/12 17:34:03;;;;;;;5.93;1.95;;;23.10;56.60;;;;;;20512094;28;20078;-73
2022/07/12 17:44:03;;;;;;;6.17;1.73;;;23.10;56.50;;;;;;20532851;28;20441;-74
2022/07/12 17:54:04;;;;;;;2.72;1.40;;;23.10;56.40;;;;;;20575862;28;20305;-73
2022/07/12 18:04:04;;;;;;;3.60;1.53;;;23.00;55.90;;;;;;20536602;28;20051;-74
2022/07/12 18:24:24;;;;;;;4.55;1.70;;;22.80;56.10;;;;;;20542344;28;20038;-72
2022/07/12 18:34:25;;;;;;;2.55;1.60;;;22.70;56.40;;;;;;20527861;28;20034;-72
2022/07/12 18:44:25;;;;;;;3.42;1.40;;;22.60;56.70;;;;;;20524904;28;20118;-73
2022/07/12 18:54:26;;;;;;;2.83;1.98;;;22.50;56.90;;;;;;20560414;28;20046;-74
2022/07/12 19:04:26;;;;;;;0.95;0.77;;;22.50;57.10;;;;;;20545740;28;20046;-72
2022/07/12 19:14:28;;;;;;;2.20;1.42;;;22.40;57.30;;;;;;20538864;28;20079;-72
2022/07/12 19:24:29;;;;;;;1.60;1.30;;;22.40;57.50;;;;;;20538271;28;20070;-72
2022/07/12 19:34:29;;;;;;;1.83;1.27;;;22.40;57.70;;;;;;20526401;28;20429;-72
2022/07/12 19:44:30;;;;;;;2.35;1.40;;;22.30;57.80;;;;;;20523809;28;20428;-72
2022/07/12 19:54:31;;;;;;;1.45;1.15;;;22.20;57.90;;;;;;20565398;28;20097;-72
2022/07/12 20:04:31;;;;;;;1.20;0.85;;;22.20;58.10;;;;;;20527020;28;20043;-72
2022/07/12 20:14:32;;;;;;;2.67;1.40;;;22.20;58.30;;;;;;20562201;28;20382;-74
2022/07/12 20:24:32;;;;;;;3.38;1.30;;;22.20;58.50;;;;;;20522340;28;20294;-73
2022/07/12 20:34:33;;;;;;;1.63;1.08;;;22.10;58.60;;;;;;20521669;28;20031;-74
2022/07/12 20:44:34;;;;;;;1.65;1.13;;;22.10;58.80;;;;;;20533342;28;20113;-73
2022/07/12 20:54:36;;;;;;;1.75;1.13;;;22.00;58.90;;;;;;20575235;28;20046;-73
2022/07/12 21:04:37;;;;;;;1.98;1.40;;;22.00;59.00;;;;;;20554305;28;20070;-74
2022/07/12 21:14:38;;;;;;;2.00;1.20;;;22.00;59.10;;;;;;20530313;28;20070;-72
2022/07/12 21:24:39;;;;;;;2.10;1.40;;;21.90;59.20;;;;;;20529908;28;20126;-73
2022/07/12 21:34:39;;;;;;;1.92;1.38;;;21.90;59.40;;;;;;20531849;28;20062;-72
2022/07/12 21:44:40;;;;;;;1.75;1.40;;;21.90;59.50;;;;;;20528452;28;20035;-72
2022/07/12 21:54:40;;;;;;;1.50;1.40;;;21.90;59.60;;;;;;20548290;28;20042;-72
2022/07/12 22:04:41;;;;;;;1.85;1.45;;;21.80;59.70;;;;;;20545546;28;20042;-72
2022/07/12 22:14:42;;;;;;;2.78;1.83;;;21.80;59.70;;;;;;20527601;28;20045;-72
2022/07/12 22:24:42;;;;;;;1.98;1.50;;;21.80;59.80;;;;;;20526124;28;20043;-72
2022/07/12 22:34:43;;;;;;;2.17;1.35;;;21.80;59.90;;;;;;20525192;28;20083;-72
2022/07/12 22:44:44;;;;;;;2.38;1.63;;;21.70;59.90;;;;;;20524994;28;20042;-72
2022/07/12 22:54:44;;;;;;;2.17;1.73;;;21.70;59.90;;;;;;20544499;28;20122;-75
2022/07/12 23:04:45;;;;;;;5.03;2.25;;;21.70;60.00;;;;;;20565405;28;20125;-73
2022/07/12 23:14:45;;;;;;;1.90;1.65;;;21.70;60.00;;;;;;20537862;28;20407;-73
2022/07/12 23:24:46;;;;;;;2.28;1.65;;;21.70;60.10;;;;;;20506548;28;20168;-72
2022/07/12 23:34:47;;;;;;;1.85;1.40;;;21.70;60.10;;;;;;20520589;28;20066;-72
2022/07/12 23:44:47;;;;;;;2.40;1.70;;;21.70;60.20;;;;;;20520913;28;20568;-72
2022/07/12 23:54:48;;;;;;;2.17;1.70;;;21.70;60.30;;;;;;20532470;28;20365;-74
